createdAt,value
2018-10-16T00:02:13.632Z,101376.54
2018-10-16T00:04:43.607Z,101373.16
2018-10-16T00:07:13.701Z,101377.69
2018-10-16T00:09:43.760Z,101378.96
2018-10-16T00:12:13.562Z,101381.65
2018-10-16T00:14:43.292Z,101373.97
2018-10-16T00:17:13.377Z,101385.67
2018-10-16T00:19:43.476Z,101387.67
2018-10-16T00:22:13.620Z,101386.44
2018-10-16T00:24:43.407Z,101385.84
2018-10-16T00:27:13.543Z,101392.56
2018-10-16T00:29:43.476Z,101395.99
2018-10-16T00:32:13.795Z,101393.52
2018-10-16T00:34:43.731Z,101390.52
2018-10-16T00:37:13.845Z,101394.48
2018-10-16T00:39:43.591Z,101398.51
2018-10-16T00:42:13.590Z,101393.24
2018-10-16T00:44:43.881Z,101398.04
2018-10-16T00:47:13.977Z,101401.09
2018-10-16T00:49:43.778Z,101399.95
2018-10-16T00:52:13.638Z,101405.38
2018-10-16T00:54:43.657Z,101403.73
2018-10-16T00:57:13.633Z,101403.63
2018-10-16T00:59:43.620Z,101404.74
2018-10-16T01:02:13.456Z,101411.45
2018-10-16T01:04:43.406Z,101418.27
2018-10-16T01:07:13.356Z,101416.93
2018-10-16T01:09:43.520Z,101418.47
2018-10-16T01:12:13.396Z,101415.28
2018-10-16T01:14:43.297Z,101418.30
2018-10-16T01:17:13.222Z,101416.72
2018-10-16T01:19:43.265Z,101414.27
2018-10-16T01:22:13.168Z,101413.97
2018-10-16T01:24:43.034Z,101422.21
2018-10-16T01:27:13.016Z,101417.72
2018-10-16T01:29:43.051Z,101424.22
2018-10-16T01:32:12.879Z,101424.13
2018-10-16T01:34:42.897Z,101427.67
2018-10-16T01:37:12.730Z,101431.11
2018-10-16T01:39:42.771Z,101423.27
2018-10-16T01:42:12.720Z,101428.16
2018-10-16T01:44:42.460Z,101421.59
2018-10-16T01:47:12.590Z,101422.84
2018-10-16T01:49:42.416Z,101421.72
2018-10-16T01:52:12.441Z,101430.20
2018-10-16T01:54:42.344Z,101429.70
2018-10-16T01:57:12.120Z,101434.14
2018-10-16T01:59:42.202Z,101434.98
2018-10-16T02:02:12.154Z,101431.73
2018-10-16T02:04:42.124Z,101427.55
2018-10-16T02:07:11.984Z,101441.83
2018-10-16T02:09:42.048Z,101439.86
2018-10-16T02:12:11.994Z,101435.59
2018-10-16T02:14:41.887Z,101438.52
2018-10-16T02:17:11.767Z,101439.77
2018-10-16T02:19:41.858Z,101440.37
2018-10-16T02:22:11.616Z,101443.83
2018-10-16T02:24:41.636Z,101445.23
2018-10-16T02:27:11.473Z,101445.34
2018-10-16T02:29:41.604Z,101447.55
2018-10-16T02:32:11.470Z,101451.95
2018-10-16T02:34:41.501Z,101443.20
2018-10-16T02:37:11.554Z,101447.88
2018-10-16T02:39:41.673Z,101447.02
2018-10-16T02:42:11.622Z,101448.56
2018-10-16T02:44:41.508Z,101456.97
2018-10-16T02:47:11.507Z,101455.27
2018-10-16T02:49:41.589Z,101452.79
2018-10-16T02:52:11.435Z,101457.56
2018-10-16T02:54:41.279Z,101453.91
2018-10-16T02:57:11.213Z,101457.23
2018-10-16T02:59:41.210Z,101456.83
2018-10-16T03:02:11.315Z,101458.08
2018-10-16T03:04:41.267Z,101455.86
2018-10-16T03:07:11.308Z,101451.77
2018-10-16T03:09:41.106Z,101457.87
2018-10-16T03:12:11.061Z,101461.76
2018-10-16T03:14:41.085Z,101459.91
2018-10-16T03:17:10.992Z,101457.64
2018-10-16T03:19:40.908Z,101460.63
2018-10-16T03:22:11.025Z,101461.47
2018-10-16T03:24:41.188Z,101460.56
2018-10-16T03:27:11.151Z,101457.77
2018-10-16T03:29:41.203Z,101463.95
2018-10-16T03:32:11.071Z,101458.84
2018-10-16T03:34:40.956Z,101464.14
2018-10-16T03:37:10.848Z,101463.34
2018-10-16T03:39:40.818Z,101466.48
2018-10-16T03:42:10.556Z,101471.39
2018-10-16T03:44:40.320Z,101470.66
2018-10-16T03:47:10.197Z,101470.05
2018-10-16T03:49:40.027Z,101473.78
2018-10-16T03:52:09.993Z,101474.25
2018-10-16T03:54:39.870Z,101476.09
2018-10-16T03:57:09.899Z,101476.86
2018-10-16T03:59:39.718Z,101485.73
2018-10-16T04:02:09.856Z,101481.94
2018-10-16T04:04:39.949Z,101482.20
2018-10-16T04:07:09.706Z,101483.17
2018-10-16T04:09:39.455Z,101485.31
2018-10-16T04:12:09.470Z,101486.73
2018-10-16T04:14:39.409Z,101487.50
2018-10-16T04:17:09.398Z,101490.76
2018-10-16T04:19:39.193Z,101491.60
2018-10-16T04:22:09.130Z,101491.53
2018-10-16T04:24:39.112Z,101495.33
2018-10-16T04:27:09.004Z,101498.31
2018-10-16T04:29:38.958Z,101502.15
2018-10-16T04:32:08.775Z,101502.66
2018-10-16T04:34:38.540Z,101503.42
2018-10-16T04:37:08.448Z,101501.31
2018-10-16T04:39:38.804Z,101495.23
2018-10-16T04:42:08.629Z,101505.67
2018-10-16T04:44:38.403Z,101501.20
2018-10-16T04:47:08.286Z,101504.09
2018-10-16T04:49:38.204Z,101499.66
2018-10-16T04:52:08.126Z,101501.01
2018-10-16T04:54:38.016Z,101509.87
2018-10-16T04:57:07.940Z,101510.64
2018-10-16T04:59:38.081Z,101507.50
2018-10-16T05:02:08.227Z,101515.98
2018-10-16T05:04:38.340Z,101515.47
2018-10-16T05:07:08.187Z,101513.56
2018-10-16T05:09:38.172Z,101523.05
2018-10-16T05:12:08.047Z,101523.70
2018-10-16T05:14:38.048Z,101528.41
2018-10-16T05:17:08.097Z,101530.28
2018-10-16T05:19:37.976Z,101529.91
2018-10-16T05:22:07.973Z,101523.67
2018-10-16T05:24:37.830Z,101530.50
2018-10-16T05:27:07.839Z,101524.54
2018-10-16T05:29:37.769Z,101530.74
2018-10-16T05:32:07.890Z,101536.70
2018-10-16T05:34:38.036Z,101530.74
2018-10-16T05:37:08.035Z,101527.76
2018-10-16T05:39:37.952Z,101522.09
2018-10-16T05:42:08.069Z,101524.00
2018-10-16T05:44:38.160Z,101538.08
2018-10-16T05:47:08.210Z,101535.19
2018-10-16T05:49:37.970Z,101537.03
2018-10-16T05:52:08.002Z,101541.59
2018-10-16T05:54:37.868Z,101547.71
2018-10-16T05:57:07.896Z,101553.34
2018-10-16T05:59:37.807Z,101548.22
2018-10-16T06:02:08.094Z,101549.86
2018-10-16T06:04:37.944Z,101550.90
2018-10-16T06:07:08.052Z,101558.75
2018-10-16T06:09:37.981Z,101560.36
2018-10-16T06:12:07.942Z,101561.20
2018-10-16T06:14:37.675Z,101572.23
2018-10-16T06:17:07.840Z,101574.95
2018-10-16T06:19:38.021Z,101574.20
2018-10-16T06:22:07.994Z,101574.38
2018-10-16T06:24:38.164Z,101579.50
2018-10-16T06:27:08.057Z,101583.34
2018-10-16T06:29:37.963Z,101582.51
2018-10-16T06:32:07.984Z,101579.61
2018-10-16T06:34:37.953Z,101577.97
2018-10-16T06:37:08.171Z,101571.77
2018-10-16T06:39:38.001Z,101573.63
2018-10-16T06:42:07.949Z,101578.64
2018-10-16T06:44:37.896Z,101579.44
2018-10-16T06:47:07.985Z,101580.87
2018-10-16T06:49:37.788Z,101583.66
2018-10-16T06:52:07.828Z,101589.03
2018-10-16T06:54:38.155Z,101583.84
2018-10-16T06:57:08.210Z,101582.93
2018-10-16T06:59:38.040Z,101589.05
2018-10-16T07:02:08.199Z,101590.06
2018-10-16T07:04:37.989Z,101585.69
2018-10-16T07:07:09.471Z,101588.55
2018-10-16T07:09:39.656Z,101586.31
2018-10-16T07:12:10.293Z,101588.58
2018-10-16T07:14:40.371Z,101593.95
2018-10-16T07:17:10.413Z,101589.68
2018-10-16T07:19:40.295Z,101597.84
2018-10-16T07:22:12.109Z,101598.77
2018-10-16T07:24:41.945Z,101602.60
2018-10-16T07:27:11.808Z,101602.37
2018-10-16T07:29:41.806Z,101603.67
2018-10-16T07:32:11.784Z,101607.09
2018-10-16T07:34:41.736Z,101601.14
2018-10-16T07:37:11.634Z,101603.45
2018-10-16T07:39:41.440Z,101605.73
2018-10-16T07:42:11.491Z,101602.09
2018-10-16T07:44:41.389Z,101606.10
2018-10-16T07:47:11.264Z,101608.00
2018-10-16T07:49:41.219Z,101606.19
2018-10-16T07:52:11.208Z,101609.43
2018-10-16T07:54:41.145Z,101612.80
2018-10-16T07:57:11.248Z,101608.97
2018-10-16T07:59:41.059Z,101611.22
2018-10-16T08:02:11.073Z,101623.87
2018-10-16T08:04:40.861Z,101628.64
2018-10-16T08:07:11.058Z,101633.58
2018-10-16T08:09:40.931Z,101625.38
2018-10-16T08:12:11.283Z,101628.17
2018-10-16T08:14:41.266Z,101621.77
2018-10-16T08:17:11.214Z,101625.06
2018-10-16T08:19:41.572Z,101619.81
2018-10-16T08:22:11.688Z,101619.61
2018-10-16T08:24:41.771Z,101615.09
2018-10-16T08:27:11.551Z,101620.34
2018-10-16T08:29:41.431Z,101618.95
2018-10-16T08:32:11.376Z,101618.85
2018-10-16T08:34:41.194Z,101615.23
2018-10-16T08:37:13.359Z,101616.64
2018-10-16T08:39:44.797Z,101622.59
2018-10-16T08:43:21.961Z,101615.82
2018-10-16T08:46:09.011Z,101622.63
2018-10-16T08:48:55.849Z,101625.98
2018-10-16T08:51:43.068Z,101621.12
2018-10-16T08:54:12.892Z,101616.99
2018-10-16T08:56:43.034Z,101616.83
2018-10-16T08:59:12.892Z,101612.98
2018-10-16T09:01:42.835Z,101616.47
2018-10-16T09:04:12.947Z,101617.48
2018-10-16T09:06:42.858Z,101615.47
2018-10-16T09:09:15.965Z,101616.91
2018-10-16T09:11:47.283Z,101615.27
2018-10-16T09:14:17.973Z,101611.22
2018-10-16T09:16:48.068Z,101614.91
2018-10-16T09:19:17.930Z,101616.23
2018-10-16T09:21:47.808Z,101618.81
2018-10-16T09:24:17.821Z,101615.81
2018-10-16T09:26:47.811Z,101612.40
2018-10-16T09:29:17.729Z,101610.36
2018-10-16T09:31:47.706Z,101610.61
2018-10-16T09:34:17.602Z,101607.63
2018-10-16T09:36:47.479Z,101609.75
2018-10-16T09:39:17.511Z,101609.58
2018-10-16T09:41:47.400Z,101609.42
2018-10-16T09:44:17.377Z,101607.45
2018-10-16T09:46:47.219Z,101611.19
2018-10-16T09:49:17.445Z,101612.59
2018-10-16T09:51:47.182Z,101616.36
2018-10-16T09:54:17.160Z,101620.09
2018-10-16T09:56:47.216Z,101623.13
2018-10-16T09:59:17.590Z,101621.67
2018-10-16T10:01:51.389Z,101624.28
2018-10-16T10:04:21.868Z,101623.05
2018-10-16T10:06:51.690Z,101617.52
2018-10-16T10:09:21.535Z,101611.99
2018-10-16T10:11:51.435Z,101620.47
2018-10-16T10:14:21.511Z,101611.57
2018-10-16T10:16:51.671Z,101620.27
2018-10-16T10:19:21.780Z,101622.38
2018-10-16T10:21:51.593Z,101621.53
2018-10-16T10:24:21.491Z,101620.51
2018-10-16T10:26:51.609Z,101618.55
2018-10-16T10:29:21.573Z,101610.28
2018-10-16T10:31:51.467Z,101612.30
2018-10-16T10:34:21.235Z,101610.95
2018-10-16T10:36:51.219Z,101608.47
2018-10-16T10:39:21.157Z,101611.42
2018-10-16T10:41:51.171Z,101609.07
2018-10-16T10:44:21.230Z,101611.02
2018-10-16T10:46:50.997Z,101605.66
2018-10-16T10:49:20.840Z,101607.47
2018-10-16T10:51:50.633Z,101608.81
2018-10-16T10:54:20.600Z,101604.04
2018-10-16T10:56:50.965Z,101600.88
2018-10-16T10:59:21.284Z,101600.75
2018-10-16T11:01:51.291Z,101610.80
2018-10-16T11:04:21.156Z,101600.69
2018-10-16T11:06:51.227Z,101600.44
2018-10-16T11:09:21.016Z,101596.80
2018-10-16T11:11:53.728Z,101592.02
2018-10-16T11:14:25.007Z,101602.63
2018-10-16T11:16:55.130Z,101598.52
2018-10-16T11:19:25.130Z,101599.87
2018-10-16T11:21:55.095Z,101601.02
2018-10-16T11:24:24.914Z,101602.58
2018-10-16T11:26:54.775Z,101595.09
2018-10-16T11:29:24.860Z,101597.49
2018-10-16T11:31:54.607Z,101595.34
2018-10-16T11:34:24.464Z,101595.80
2018-10-16T11:36:54.454Z,101594.24
2018-10-16T11:39:24.409Z,101596.75
2018-10-16T11:41:54.517Z,101591.50
2018-10-16T11:44:24.309Z,101592.52
2018-10-16T11:46:54.213Z,101592.80
2018-10-16T11:49:24.021Z,101596.67
2018-10-16T11:51:54.142Z,101603.27
2018-10-16T11:54:24.079Z,101595.37
2018-10-16T11:56:54.904Z,101593.20
2018-10-16T11:59:25.000Z,101600.45
2018-10-16T12:01:54.917Z,101590.31
2018-10-16T12:04:24.815Z,101596.50
2018-10-16T12:06:54.898Z,101594.94
2018-10-16T12:09:25.150Z,101590.63
2018-10-16T12:11:55.177Z,101592.45
2018-10-16T12:14:25.163Z,101593.55
2018-10-16T12:19:03.036Z,101584.16
2018-10-16T12:21:33.027Z,101586.58
2018-10-16T12:24:03.024Z,101583.21
2018-10-16T12:26:33.047Z,101583.66
2018-10-16T12:29:03.029Z,101579.09
2018-10-16T12:31:32.850Z,101574.48
2018-10-16T12:34:02.771Z,101575.84
2018-10-16T12:36:32.693Z,101572.24
2018-10-16T12:39:02.783Z,101569.61
2018-10-16T12:41:32.667Z,101570.66
2018-10-16T12:44:02.673Z,101571.12
2018-10-16T12:46:32.463Z,101572.09
2018-10-16T12:49:02.376Z,101570.77
2018-10-16T12:51:32.560Z,101571.15
2018-10-16T12:54:02.560Z,101567.95
2018-10-16T12:56:32.405Z,101565.14
2018-10-16T12:59:02.433Z,101560.29
2018-10-16T13:01:32.274Z,101563.52
2018-10-16T13:04:02.178Z,101559.04
2018-10-16T13:06:32.509Z,101560.53
2018-10-16T13:09:02.719Z,101566.23
2018-10-16T13:11:32.656Z,101559.93
2018-10-16T13:14:02.724Z,101564.39
2018-10-16T13:16:32.631Z,101567.18
2018-10-16T13:19:02.679Z,101563.48
2018-10-16T13:21:32.586Z,101565.22
2018-10-16T13:24:02.629Z,101561.69
2018-10-16T13:26:32.532Z,101560.17
2018-10-16T13:29:02.537Z,101559.42
2018-10-16T13:31:32.536Z,101557.97
2018-10-16T13:34:02.436Z,101554.31
2018-10-16T13:36:32.339Z,101557.74
2018-10-16T13:39:02.207Z,101551.87
2018-10-16T13:41:32.487Z,101555.92
2018-10-16T13:44:02.622Z,101552.30
2018-10-16T13:46:32.543Z,101548.20
2018-10-16T13:49:02.363Z,101549.00
2018-10-16T13:51:32.331Z,101550.20
2018-10-16T13:54:02.588Z,101542.73
2018-10-16T13:56:32.611Z,101547.49
2018-10-16T13:59:02.534Z,101549.95
2018-10-16T14:01:32.556Z,101552.53
2018-10-16T14:04:02.853Z,101553.03
2018-10-16T14:06:32.879Z,101548.33
2018-10-16T14:09:02.826Z,101549.68
2018-10-16T14:11:32.676Z,101547.84
2018-10-16T14:14:02.567Z,101545.92
2018-10-16T14:16:32.677Z,101552.16
2018-10-16T14:19:02.560Z,101544.69
2018-10-16T14:21:32.400Z,101551.48
2018-10-16T14:24:02.308Z,101551.72
2018-10-16T14:26:32.283Z,101548.85
2018-10-16T14:29:02.808Z,101543.41
2018-10-16T14:31:32.737Z,101545.30
2018-10-16T14:34:02.930Z,101543.44
2018-10-16T14:36:33.025Z,101542.41
2018-10-16T14:39:02.896Z,101542.55
2018-10-16T14:41:32.743Z,101544.83
2018-10-16T14:44:02.912Z,101550.98
2018-10-16T14:46:33.207Z,101541.37
2018-10-16T14:49:03.383Z,101542.81
2018-10-16T14:51:34.404Z,101539.18
2018-10-16T14:54:04.338Z,101539.74
2018-10-16T14:56:34.936Z,101539.33
2018-10-16T14:59:04.832Z,101537.41
2018-10-16T15:01:34.866Z,101539.53
2018-10-16T15:04:05.095Z,101539.70
2018-10-16T15:06:34.848Z,101537.57
2018-10-16T15:09:06.796Z,101534.61
2018-10-16T15:11:36.942Z,101536.58
2018-10-16T15:14:07.379Z,101536.95
2018-10-16T15:16:37.460Z,101537.80
2018-10-16T15:19:07.346Z,101542.12
2018-10-16T15:21:37.217Z,101543.86
2018-10-16T15:24:07.700Z,101536.42
2018-10-16T15:26:37.545Z,101541.55
2018-10-16T15:29:07.506Z,101539.67
2018-10-16T15:31:37.502Z,101541.72
2018-10-16T15:34:07.480Z,101538.37
2018-10-16T15:36:37.439Z,101536.80
2018-10-16T15:39:11.074Z,101530.69
2018-10-16T15:41:41.413Z,101537.35
2018-10-16T15:44:11.613Z,101545.95
2018-10-16T15:46:41.436Z,101540.64
2018-10-16T15:49:11.590Z,101540.54
2018-10-16T15:51:41.368Z,101542.00
2018-10-16T15:54:11.957Z,101541.77
2018-10-16T15:56:42.075Z,101539.95
2018-10-16T15:59:11.886Z,101554.41
2018-10-16T16:01:41.759Z,101544.41
2018-10-16T16:04:11.804Z,101549.37
2018-10-16T16:06:42.017Z,101543.02
2018-10-16T16:09:11.962Z,101550.69
2018-10-16T16:11:42.266Z,101544.55
2018-10-16T16:14:12.408Z,101541.58
2018-10-16T16:16:42.398Z,101544.16
2018-10-16T16:19:12.358Z,101543.67
2018-10-16T16:21:42.178Z,101543.75
2018-10-16T16:24:12.590Z,101553.70
2018-10-16T16:26:42.511Z,101555.36
2018-10-16T16:29:12.366Z,101554.30
2018-10-16T16:31:42.324Z,101557.78
2018-10-16T16:34:12.365Z,101564.48
2018-10-16T16:36:42.329Z,101560.41
2018-10-16T16:39:13.872Z,101567.11
2018-10-16T16:41:43.965Z,101566.06
2018-10-16T16:44:13.970Z,101566.55
2018-10-16T16:46:43.792Z,101566.19
2018-10-16T16:49:13.754Z,101568.27
2018-10-16T16:51:43.641Z,101571.16
2018-10-16T16:54:13.601Z,101572.48
2018-10-16T16:56:43.447Z,101576.47
2018-10-16T16:59:13.405Z,101572.81
2018-10-16T17:01:43.454Z,101578.40
2018-10-16T17:04:13.478Z,101577.77
2018-10-16T17:06:43.478Z,101580.62
2018-10-16T17:09:13.858Z,101577.62
2018-10-16T17:11:43.818Z,101580.98
2018-10-16T17:14:13.805Z,101576.16
2018-10-16T17:16:43.736Z,101588.91
2018-10-16T17:19:13.771Z,101585.91
2018-10-16T17:21:43.685Z,101588.12
2018-10-16T17:24:13.559Z,101586.30
2018-10-16T17:26:43.712Z,101584.73
2018-10-16T17:29:14.538Z,101594.95
2018-10-16T17:31:44.528Z,101595.98
2018-10-16T17:34:14.440Z,101599.08
2018-10-16T17:36:44.525Z,101597.43
2018-10-16T17:39:15.365Z,101593.60
2018-10-16T17:41:45.621Z,101596.63
2018-10-16T17:44:15.940Z,101593.07
2018-10-16T17:46:46.148Z,101600.05
2018-10-16T17:49:16.184Z,101598.09
2018-10-16T17:51:46.176Z,101596.74
2018-10-16T17:54:16.033Z,101603.88
2018-10-16T17:56:46.002Z,101605.33
2018-10-16T17:59:15.971Z,101608.33
2018-10-16T18:01:46.591Z,101609.38
2018-10-16T18:04:16.851Z,101609.77
2018-10-16T18:06:47.735Z,101615.81
2018-10-16T18:09:17.614Z,101615.66
2018-10-16T18:11:47.608Z,101617.39
2018-10-16T18:14:17.818Z,101620.70
2018-10-16T18:16:47.854Z,101619.42
2018-10-16T18:19:17.759Z,101618.97
2018-10-16T18:21:47.713Z,101621.73
2018-10-16T18:24:17.590Z,101617.77
2018-10-16T18:26:47.573Z,101617.92
2018-10-16T18:29:17.649Z,101621.23
2018-10-16T18:31:47.575Z,101616.73
2018-10-16T18:34:17.753Z,101621.55
2018-10-16T18:36:47.747Z,101614.09
2018-10-16T18:39:17.758Z,101611.45
2018-10-16T18:41:47.761Z,101609.17
2018-10-16T18:44:17.714Z,101608.29
2018-10-16T18:46:47.592Z,101613.52
2018-10-16T18:49:17.534Z,101614.44
2018-10-16T18:51:47.842Z,101614.84
2018-10-16T18:54:17.842Z,101614.13
2018-10-16T18:56:47.786Z,101611.60
2018-10-16T18:59:17.741Z,101615.20
2018-10-16T19:01:47.684Z,101619.50
2018-10-16T19:04:17.639Z,101615.20
2018-10-16T19:06:47.728Z,101620.11
2018-10-16T19:09:17.838Z,101611.59
2018-10-16T19:11:47.814Z,101623.91
2018-10-16T19:14:17.864Z,101625.83
2018-10-16T19:16:47.901Z,101623.94
2018-10-16T19:19:18.088Z,101629.52
2018-10-16T19:21:48.094Z,101621.92
2018-10-16T19:24:17.978Z,101630.81
2018-10-16T19:26:48.463Z,101629.27
2018-10-16T19:29:18.548Z,101623.27
2018-10-16T19:31:48.865Z,101625.73
2018-10-16T19:34:19.022Z,101629.41
2018-10-16T19:36:49.030Z,101623.44
2018-10-16T19:39:19.194Z,101632.06
2018-10-16T19:41:49.575Z,101632.78
2018-10-16T19:44:19.550Z,101632.65
2018-10-16T19:46:49.584Z,101635.26
2018-10-16T19:49:19.492Z,101639.56
2018-10-16T19:51:49.770Z,101644.69
2018-10-16T19:54:19.710Z,101644.09
2018-10-16T19:56:49.568Z,101637.73
2018-10-16T19:59:19.832Z,101639.93
2018-10-16T20:01:49.741Z,101646.93
2018-10-16T20:04:19.767Z,101647.78
2018-10-16T20:06:50.056Z,101648.88
2018-10-16T20:09:20.111Z,101652.42
2018-10-16T20:11:50.056Z,101653.31
2018-10-16T20:14:20.078Z,101651.39
2018-10-16T20:16:50.533Z,101647.66
2018-10-16T20:19:20.751Z,101656.99
2018-10-16T20:21:50.823Z,101652.23
2018-10-16T20:24:20.985Z,101657.38
2018-10-16T20:26:50.907Z,101652.35
2018-10-16T20:29:20.763Z,101652.84
2018-10-16T20:31:50.737Z,101654.24
2018-10-16T20:34:21.132Z,101657.97
2018-10-16T20:36:51.317Z,101655.05
2018-10-16T20:39:21.284Z,101657.70
2018-10-16T20:41:51.703Z,101654.11
2018-10-16T20:44:21.762Z,101653.58
2018-10-16T20:46:51.616Z,101653.58
2018-10-16T20:49:21.671Z,101660.13
2018-10-16T20:51:51.876Z,101656.58
2018-10-16T20:54:21.804Z,101659.33
2018-10-16T20:56:51.784Z,101659.33
2018-10-16T20:59:21.782Z,101658.47
2018-10-16T21:01:51.761Z,101653.34
2018-10-16T21:04:21.658Z,101654.69
2018-10-16T21:06:51.774Z,101658.73
2018-10-16T21:09:21.524Z,101653.34
2018-10-16T21:11:51.604Z,101657.38
2018-10-16T21:14:21.816Z,101657.44
2018-10-16T21:16:52.130Z,101657.83
2018-10-16T21:19:22.109Z,101662.95
2018-10-16T21:21:51.996Z,101660.61
2018-10-16T21:24:22.153Z,101656.65
2018-10-16T21:27:08.129Z,101659.96
2018-10-16T21:29:37.904Z,101652.73
2018-10-16T21:32:09.009Z,101656.77
2018-10-16T21:34:38.863Z,101649.36
2018-10-16T21:37:08.970Z,101647.47
2018-10-16T21:39:38.780Z,101646.48
2018-10-16T21:42:09.140Z,101645.44
2018-10-16T21:44:39.117Z,101636.33
2018-10-16T21:47:08.995Z,101634.48
2018-10-16T21:49:38.844Z,101635.34
2018-10-16T21:52:08.847Z,101634.48
2018-10-16T21:54:38.757Z,101626.48
2018-10-16T21:57:08.895Z,101624.88
2018-10-16T21:59:38.987Z,101624.95
2018-10-16T22:03:12.103Z,101619.92
2018-10-16T22:05:42.108Z,101621.69
2018-10-16T22:08:12.159Z,101625.98
2018-10-16T22:10:42.123Z,101619.25
2018-10-16T22:13:12.460Z,101627.88
2018-10-16T22:15:42.383Z,101626.53
2018-10-16T22:18:12.293Z,101625.98
2018-10-16T22:20:42.258Z,101628.98
2018-10-16T22:23:12.282Z,101622.26
2018-10-16T22:25:42.054Z,101628.42
2018-10-16T22:28:12.028Z,101619.61
2018-10-16T22:30:41.920Z,101613.19
2018-10-16T22:33:12.033Z,101620.19
2018-10-16T22:35:41.979Z,101617.58
2018-10-16T22:38:11.968Z,101618.17
2018-10-16T22:40:41.879Z,101617.89
2018-10-16T22:43:11.926Z,101615.46
2018-10-16T22:45:41.636Z,101615.24
2018-10-16T22:48:11.692Z,101616.09
2018-10-16T22:50:41.513Z,101609.44
2018-10-16T22:53:11.444Z,101609.98
2018-10-16T22:55:41.346Z,101611.56
2018-10-16T22:58:11.370Z,101608.14
2018-10-16T23:00:41.162Z,101605.45
2018-10-16T23:03:11.420Z,101608.68
2018-10-16T23:05:41.369Z,101608.68
2018-10-16T23:08:11.136Z,101614.87
2018-10-16T23:10:41.090Z,101610.59
2018-10-16T23:13:11.154Z,101608.75
2018-10-16T23:15:40.996Z,101607.09
2018-10-16T23:18:10.964Z,101608.45
2018-10-16T23:20:40.913Z,101607.02
2018-10-16T23:23:10.661Z,101607.02
2018-10-16T23:25:40.532Z,101604.59
2018-10-16T23:28:10.379Z,101596.83
2018-10-16T23:30:40.347Z,101595.91
2018-10-16T23:33:10.341Z,101595.95
2018-10-16T23:35:40.180Z,101597.80
2018-10-16T23:38:10.209Z,101597.18
2018-10-16T23:40:39.952Z,101602.75
2018-10-16T23:43:09.900Z,101602.45
2018-10-16T23:45:40.023Z,101606.17
2018-10-16T23:48:09.736Z,101602.41
2018-10-16T23:50:39.476Z,101597.87
2018-10-16T23:53:09.536Z,101591.14
2018-10-16T23:55:39.291Z,101590.41
2018-10-16T23:58:09.368Z,101589.19
